sensor_id;sensor_type;location;lat;lon;timestamp;temperature;humidity
5588;DHT22;2816;49.778;9.986;2023-07-13T00:00:48;21.60;93.40
5588;DHT22;2816;49.778;9.986;2023-07-13T00:03:16;21.50;93.60
5588;DHT22;2816;49.778;9.986;2023-07-13T00:05:42;21.50;93.70
5588;DHT22;2816;49.778;9.986;2023-07-13T00:08:09;21.40;93.60
5588;DHT22;2816;49.778;9.986;2023-07-13T00:10:39;21.50;93.70
5588;DHT22;2816;49.778;9.986;2023-07-13T00:13:09;21.30;93.60
5588;DHT22;2816;49.778;9.986;2023-07-13T00:15:36;21.30;93.90
5588;DHT22;2816;49.778;9.986;2023-07-13T00:18:03;21.30;93.90
5588;DHT22;2816;49.778;9.986;2023-07-13T00:20:30;21.30;93.80
5588;DHT22;2816;49.778;9.986;2023-07-13T00:22:57;21.30;93.90
5588;DHT22;2816;49.778;9.986;2023-07-13T00:25:24;21.30;93.90
5588;DHT22;2816;49.778;9.986;2023-07-13T00:27:53;21.30;94.70
5588;DHT22;2816;49.778;9.986;2023-07-13T00:30:22;21.20;94.00
5588;DHT22;2816;49.778;9.986;2023-07-13T00:32:49;21.20;95.20
5588;DHT22;2816;49.778;9.986;2023-07-13T00:35:17;21.30;94.10
5588;DHT22;2816;49.778;9.986;2023-07-13T00:37:44;21.30;95.20
5588;DHT22;2816;49.778;9.986;2023-07-13T00:40:13;21.30;94.10
5588;DHT22;2816;49.778;9.986;2023-07-13T00:42:41;21.30;94.60
5588;DHT22;2816;49.778;9.986;2023-07-13T00:48:19;21.20;94.50
5588;DHT22;2816;49.778;9.986;2023-07-13T00:50:50;21.20;95.10
5588;DHT22;2816;49.778;9.986;2023-07-13T00:53:19;21.20;94.80
5588;DHT22;2816;49.778;9.986;2023-07-13T00:55:47;21.20;95.10
5588;DHT22;2816;49.778;9.986;2023-07-13T00:58:15;21.20;95.20
5588;DHT22;2816;49.778;9.986;2023-07-13T01:00:42;21.20;95.30
5588;DHT22;2816;49.778;9.986;2023-07-13T01:03:09;21.10;95.30
5588;DHT22;2816;49.778;9.986;2023-07-13T01:05:38;21.00;95.50
5588;DHT22;2816;49.778;9.986;2023-07-13T01:08:05;21.00;95.70
5588;DHT22;2816;49.778;9.986;2023-07-13T01:10:33;20.90;95.70
5588;DHT22;2816;49.778;9.986;2023-07-13T01:13:05;20.90;96.20
5588;DHT22;2816;49.778;9.986;2023-07-13T01:15:37;20.80;96.00
5588;DHT22;2816;49.778;9.986;2023-07-13T01:18:06;20.70;96.30
5588;DHT22;2816;49.778;9.986;2023-07-13T01:20:33;20.70;96.40
5588;DHT22;2816;49.778;9.986;2023-07-13T01:23:05;20.70;96.20
5588;DHT22;2816;49.778;9.986;2023-07-13T01:25:34;20.70;96.00
5588;DHT22;2816;49.778;9.986;2023-07-13T01:28:01;20.70;95.90
5588;DHT22;2816;49.778;9.986;2023-07-13T01:30:28;20.60;95.40
5588;DHT22;2816;49.778;9.986;2023-07-13T01:32:56;20.70;95.90
5588;DHT22;2816;49.778;9.986;2023-07-13T01:35:23;20.70;96.20
5588;DHT22;2816;49.778;9.986;2023-07-13T01:37:51;20.80;96.30
5588;DHT22;2816;49.778;9.986;2023-07-13T01:40:19;20.70;96.30
5588;DHT22;2816;49.778;9.986;2023-07-13T01:42:46;20.50;96.10
5588;DHT22;2816;49.778;9.986;2023-07-13T01:45:13;20.50;95.70
5588;DHT22;2816;49.778;9.986;2023-07-13T01:47:41;20.50;95.80
5588;DHT22;2816;49.778;9.986;2023-07-13T01:50:09;20.50;96.20
5588;DHT22;2816;49.778;9.986;2023-07-13T01:52:36;20.50;96.60
5588;DHT22;2816;49.778;9.986;2023-07-13T01:55:04;20.50;95.90
5588;DHT22;2816;49.778;9.986;2023-07-13T01:57:33;20.50;96.40
5588;DHT22;2816;49.778;9.986;2023-07-13T02:00:02;20.40;97.10
5588;DHT22;2816;49.778;9.986;2023-07-13T02:02:30;20.30;97.50
5588;DHT22;2816;49.778;9.986;2023-07-13T02:04:57;20.20;97.70
5588;DHT22;2816;49.778;9.986;2023-07-13T02:07:24;20.20;97.20
5588;DHT22;2816;49.778;9.986;2023-07-13T02:09:51;20.10;96.40
5588;DHT22;2816;49.778;9.986;2023-07-13T02:12:18;20.00;97.50
5588;DHT22;2816;49.778;9.986;2023-07-13T02:14:46;20.00;98.10
5588;DHT22;2816;49.778;9.986;2023-07-13T02:17:14;19.90;98.30
5588;DHT22;2816;49.778;9.986;2023-07-13T02:19:41;19.90;98.90
5588;DHT22;2816;49.778;9.986;2023-07-13T02:22:07;19.80;99.00
5588;DHT22;2816;49.778;9.986;2023-07-13T02:24:34;19.80;98.60
5588;DHT22;2816;49.778;9.986;2023-07-13T02:27:01;19.80;98.50
5588;DHT22;2816;49.778;9.986;2023-07-13T02:29:28;19.80;99.10
5588;DHT22;2816;49.778;9.986;2023-07-13T02:31:57;19.80;99.70
5588;DHT22;2816;49.778;9.986;2023-07-13T02:34:24;19.60;99.90
5588;DHT22;2816;49.778;9.986;2023-07-13T02:36:51;19.50;99.90
5588;DHT22;2816;49.778;9.986;2023-07-13T02:39:18;19.30;99.90
5588;DHT22;2816;49.778;9.986;2023-07-13T02:41:45;19.10;99.90
5588;DHT22;2816;49.778;9.986;2023-07-13T02:44:12;19.10;99.90
5588;DHT22;2816;49.778;9.986;2023-07-13T02:46:39;19.00;99.90
5588;DHT22;2816;49.778;9.986;2023-07-13T02:49:07;18.90;99.90
5588;DHT22;2816;49.778;9.986;2023-07-13T02:51:35;18.80;99.90
5588;DHT22;2816;49.778;9.986;2023-07-13T02:54:02;18.80;99.90
5588;DHT22;2816;49.778;9.986;2023-07-13T02:56:31;18.80;99.90
5588;DHT22;2816;49.778;9.986;2023-07-13T02:58:58;18.80;99.90
5588;DHT22;2816;49.778;9.986;2023-07-13T03:01:25;18.80;99.90
5588;DHT22;2816;49.778;9.986;2023-07-13T03:03:52;18.80;99.90
5588;DHT22;2816;49.778;9.986;2023-07-13T03:06:21;18.80;99.90
5588;DHT22;2816;49.778;9.986;2023-07-13T03:08:48;19.00;99.90
5588;DHT22;2816;49.778;9.986;2023-07-13T03:11:18;18.90;99.70
5588;DHT22;2816;49.778;9.986;2023-07-13T03:13:46;18.90;99.90
5588;DHT22;2816;49.778;9.986;2023-07-13T03:16:14;18.90;99.90
5588;DHT22;2816;49.778;9.986;2023-07-13T03:18:42;19.00;99.90
5588;DHT22;2816;49.778;9.986;2023-07-13T03:21:09;19.10;99.90
5588;DHT22;2816;49.778;9.986;2023-07-13T03:23:38;19.10;99.90
5588;DHT22;2816;49.778;9.986;2023-07-13T03:26:06;19.10;99.90
5588;DHT22;2816;49.778;9.986;2023-07-13T03:28:33;19.10;99.90
5588;DHT22;2816;49.778;9.986;2023-07-13T03:31:02;19.10;99.90
5588;DHT22;2816;49.778;9.986;2023-07-13T03:33:29;19.10;99.90
5588;DHT22;2816;49.778;9.986;2023-07-13T03:35:57;18.90;99.90
5588;DHT22;2816;49.778;9.986;2023-07-13T03:38:24;18.70;99.90
5588;DHT22;2816;49.778;9.986;2023-07-13T03:40:53;18.60;99.90
5588;DHT22;2816;49.778;9.986;2023-07-13T03:43:20;18.60;99.90
5588;DHT22;2816;49.778;9.986;2023-07-13T03:45:47;18.60;99.90
5588;DHT22;2816;49.778;9.986;2023-07-13T03:48:14;18.60;99.90
5588;DHT22;2816;49.778;9.986;2023-07-13T03:50:41;18.60;99.90
5588;DHT22;2816;49.778;9.986;2023-07-13T03:53:09;18.60;99.90
5588;DHT22;2816;49.778;9.986;2023-07-13T03:55:36;18.60;99.90
5588;DHT22;2816;49.778;9.986;2023-07-13T03:58:26;18.50;99.90
5588;DHT22;2816;49.778;9.986;2023-07-13T04:00:53;18.40;99.90
5588;DHT22;2816;49.778;9.986;2023-07-13T04:03:20;18.40;99.90
5588;DHT22;2816;49.778;9.986;2023-07-13T04:05:48;18.50;99.90
5588;DHT22;2816;49.778;9.986;2023-07-13T04:08:15;18.50;99.90
5588;DHT22;2816;49.778;9.986;2023-07-13T04:10:42;18.40;99.90
5588;DHT22;2816;49.778;9.986;2023-07-13T04:13:09;18.50;99.90
5588;DHT22;2816;49.778;9.986;2023-07-13T04:15:39;18.50;99.90
5588;DHT22;2816;49.778;9.986;2023-07-13T04:18:06;18.60;99.90
5588;DHT22;2816;49.778;9.986;2023-07-13T04:20:33;18.50;99.90
5588;DHT22;2816;49.778;9.986;2023-07-13T04:23:00;18.60;99.80
5588;DHT22;2816;49.778;9.986;2023-07-13T04:25:27;18.50;99.90
5588;DHT22;2816;49.778;9.986;2023-07-13T04:27:54;18.50;99.90
5588;DHT22;2816;49.778;9.986;2023-07-13T04:30:21;18.60;99.90
5588;DHT22;2816;49.778;9.986;2023-07-13T04:32:50;18.80;99.90
5588;DHT22;2816;49.778;9.986;2023-07-13T04:35:18;18.90;99.90
5588;DHT22;2816;49.778;9.986;2023-07-13T04:37:47;18.90;99.30
5588;DHT22;2816;49.778;9.986;2023-07-13T04:40:16;18.80;99.00
5588;DHT22;2816;49.778;9.986;2023-07-13T04:42:43;19.10;99.80
5588;DHT22;2816;49.778;9.986;2023-07-13T04:45:11;19.10;99.30
5588;DHT22;2816;49.778;9.986;2023-07-13T04:47:38;19.00;98.40
5588;DHT22;2816;49.778;9.986;2023-07-13T04:50:09;19.00;98.50
5588;DHT22;2816;49.778;9.986;2023-07-13T04:52:36;18.80;99.10
5588;DHT22;2816;49.778;9.986;2023-07-13T04:55:04;19.10;98.90
5588;DHT22;2816;49.778;9.986;2023-07-13T04:57:31;18.90;98.40
5588;DHT22;2816;49.778;9.986;2023-07-13T04:59:59;18.80;98.60
5588;DHT22;2816;49.778;9.986;2023-07-13T05:02:26;18.80;98.50
5588;DHT22;2816;49.778;9.986;2023-07-13T05:04:53;18.70;98.50
5588;DHT22;2816;49.778;9.986;2023-07-13T05:07:22;18.70;98.50
5588;DHT22;2816;49.778;9.986;2023-07-13T05:09:49;18.90;99.00
5588;DHT22;2816;49.778;9.986;2023-07-13T05:12:16;18.90;98.80
5588;DHT22;2816;49.778;9.986;2023-07-13T05:14:43;19.00;98.70
5588;DHT22;2816;49.778;9.986;2023-07-13T05:17:10;19.00;98.00
5588;DHT22;2816;49.778;9.986;2023-07-13T05:19:37;18.80;97.70
5588;DHT22;2816;49.778;9.986;2023-07-13T05:22:04;18.70;98.90
5588;DHT22;2816;49.778;9.986;2023-07-13T05:24:32;18.80;98.80
5588;DHT22;2816;49.778;9.986;2023-07-13T05:26:59;18.80;98.10
5588;DHT22;2816;49.778;9.986;2023-07-13T05:29:26;18.80;98.40
5588;DHT22;2816;49.778;9.986;2023-07-13T05:31:53;18.90;98.50
5588;DHT22;2816;49.778;9.986;2023-07-13T05:34:20;19.00;98.20
5588;DHT22;2816;49.778;9.986;2023-07-13T05:36:48;19.10;99.00
5588;DHT22;2816;49.778;9.986;2023-07-13T05:39:15;18.90;97.90
5588;DHT22;2816;49.778;9.986;2023-07-13T05:41:43;18.90;97.80
5588;DHT22;2816;49.778;9.986;2023-07-13T05:44:10;19.10;98.10
5588;DHT22;2816;49.778;9.986;2023-07-13T05:46:37;19.00;97.40
5588;DHT22;2816;49.778;9.986;2023-07-13T05:49:04;19.00;96.80
5588;DHT22;2816;49.778;9.986;2023-07-13T05:51:31;19.00;97.50
5588;DHT22;2816;49.778;9.986;2023-07-13T05:53:58;19.20;96.70
5588;DHT22;2816;49.778;9.986;2023-07-13T05:56:25;19.00;97.10
5588;DHT22;2816;49.778;9.986;2023-07-13T05:58:53;18.90;97.40
5588;DHT22;2816;49.778;9.986;2023-07-13T06:01:20;19.10;98.20
5588;DHT22;2816;49.778;9.986;2023-07-13T06:03:49;19.00;97.10
5588;DHT22;2816;49.778;9.986;2023-07-13T06:06:16;19.00;96.90
5588;DHT22;2816;49.778;9.986;2023-07-13T06:08:43;18.90;97.90
5588;DHT22;2816;49.778;9.986;2023-07-13T06:11:14;19.20;97.50
5588;DHT22;2816;49.778;9.986;2023-07-13T06:13:41;19.10;96.10
5588;DHT22;2816;49.778;9.986;2023-07-13T06:16:10;18.80;96.90
5588;DHT22;2816;49.778;9.986;2023-07-13T06:18:38;18.80;97.90
5588;DHT22;2816;49.778;9.986;2023-07-13T06:21:07;18.90;97.60
5588;DHT22;2816;49.778;9.986;2023-07-13T06:23:34;19.20;97.50
5588;DHT22;2816;49.778;9.986;2023-07-13T06:26:01;19.10;97.00
5588;DHT22;2816;49.778;9.986;2023-07-13T06:28:29;19.20;97.00
5588;DHT22;2816;49.778;9.986;2023-07-13T06:30:57;19.10;97.60
5588;DHT22;2816;49.778;9.986;2023-07-13T06:33:26;19.10;96.50
5588;DHT22;2816;49.778;9.986;2023-07-13T06:35:53;19.20;96.80
5588;DHT22;2816;49.778;9.986;2023-07-13T06:38:20;19.20;96.90
5588;DHT22;2816;49.778;9.986;2023-07-13T06:40:47;19.30;96.60
5588;DHT22;2816;49.778;9.986;2023-07-13T06:43:14;19.30;96.70
5588;DHT22;2816;49.778;9.986;2023-07-13T06:45:43;19.20;96.80
5588;DHT22;2816;49.778;9.986;2023-07-13T06:48:11;19.20;96.70
5588;DHT22;2816;49.778;9.986;2023-07-13T06:50:40;19.20;97.00
5588;DHT22;2816;49.778;9.986;2023-07-13T06:53:08;19.20;96.70
5588;DHT22;2816;49.778;9.986;2023-07-13T06:55:35;19.30;97.40
5588;DHT22;2816;49.778;9.986;2023-07-13T06:58:01;19.50;97.00
5588;DHT22;2816;49.778;9.986;2023-07-13T07:00:29;19.60;96.10
5588;DHT22;2816;49.778;9.986;2023-07-13T07:02:56;19.60;95.40
5588;DHT22;2816;49.778;9.986;2023-07-13T07:05:23;19.60;95.40
5588;DHT22;2816;49.778;9.986;2023-07-13T07:07:53;19.60;95.20
5588;DHT22;2816;49.778;9.986;2023-07-13T07:10:21;19.60;95.60
5588;DHT22;2816;49.778;9.986;2023-07-13T07:12:48;19.80;95.30
5588;DHT22;2816;49.778;9.986;2023-07-13T07:15:16;19.70;95.10
5588;DHT22;2816;49.778;9.986;2023-07-13T07:17:43;19.80;94.90
5588;DHT22;2816;49.778;9.986;2023-07-13T07:20:11;19.70;94.60
5588;DHT22;2816;49.778;9.986;2023-07-13T07:22:38;19.90;95.20
5588;DHT22;2816;49.778;9.986;2023-07-13T07:25:07;20.10;93.50
5588;DHT22;2816;49.778;9.986;2023-07-13T07:27:34;20.30;94.50
5588;DHT22;2816;49.778;9.986;2023-07-13T07:30:01;20.50;94.60
5588;DHT22;2816;49.778;9.986;2023-07-13T07:32:29;20.50;93.60
5588;DHT22;2816;49.778;9.986;2023-07-13T07:34:56;20.40;92.30
5588;DHT22;2816;49.778;9.986;2023-07-13T07:37:23;20.50;92.40
5588;DHT22;2816;49.778;9.986;2023-07-13T07:39:50;20.50;93.60
5588;DHT22;2816;49.778;9.986;2023-07-13T07:42:19;20.50;92.60
5588;DHT22;2816;49.778;9.986;2023-07-13T07:44:45;20.50;93.60
5588;DHT22;2816;49.778;9.986;2023-07-13T07:47:12;20.70;92.00
5588;DHT22;2816;49.778;9.986;2023-07-13T07:49:39;20.90;91.90
5588;DHT22;2816;49.778;9.986;2023-07-13T07:52:07;20.90;92.50
5588;DHT22;2816;49.778;9.986;2023-07-13T07:54:34;20.90;92.40
5588;DHT22;2816;49.778;9.986;2023-07-13T07:57:01;21.10;92.70
5588;DHT22;2816;49.778;9.986;2023-07-13T07:59:29;20.90;91.40
5588;DHT22;2816;49.778;9.986;2023-07-13T08:01:56;20.70;90.90
5588;DHT22;2816;49.778;9.986;2023-07-13T08:04:23;21.00;90.60
5588;DHT22;2816;49.778;9.986;2023-07-13T08:06:50;21.10;91.30
5588;DHT22;2816;49.778;9.986;2023-07-13T08:09:17;21.10;90.10
5588;DHT22;2816;49.778;9.986;2023-07-13T08:11:44;21.30;90.20
5588;DHT22;2816;49.778;9.986;2023-07-13T08:14:10;21.40;90.30
5588;DHT22;2816;49.778;9.986;2023-07-13T08:16:39;21.30;90.20
5588;DHT22;2816;49.778;9.986;2023-07-13T08:19:06;21.30;89.80
5588;DHT22;2816;49.778;9.986;2023-07-13T08:21:33;21.40;90.00
5588;DHT22;2816;49.778;9.986;2023-07-13T08:24:00;21.40;87.90
5588;DHT22;2816;49.778;9.986;2023-07-13T08:26:27;21.40;89.80
5588;DHT22;2816;49.778;9.986;2023-07-13T08:28:54;21.50;90.60
5588;DHT22;2816;49.778;9.986;2023-07-13T08:31:21;21.70;91.10
5588;DHT22;2816;49.778;9.986;2023-07-13T08:33:50;22.00;90.40
5588;DHT22;2816;49.778;9.986;2023-07-13T08:36:17;22.10;90.00
5588;DHT22;2816;49.778;9.986;2023-07-13T08:38:43;22.20;88.50
5588;DHT22;2816;49.778;9.986;2023-07-13T08:41:16;22.30;89.30
5588;DHT22;2816;49.778;9.986;2023-07-13T08:43:47;22.20;86.90
5588;DHT22;2816;49.778;9.986;2023-07-13T08:46:21;22.20;88.30
5588;DHT22;2816;49.778;9.986;2023-07-13T08:48:55;22.30;87.40
5588;DHT22;2816;49.778;9.986;2023-07-13T08:51:29;22.30;85.30
5588;DHT22;2816;49.778;9.986;2023-07-13T08:54:00;22.20;86.70
5588;DHT22;2816;49.778;9.986;2023-07-13T08:56:29;22.40;84.60
5588;DHT22;2816;49.778;9.986;2023-07-13T08:58:58;22.50;85.40
5588;DHT22;2816;49.778;9.986;2023-07-13T09:01:33;22.50;85.70
5588;DHT22;2816;49.778;9.986;2023-07-13T09:04:05;22.80;85.20
5588;DHT22;2816;49.778;9.986;2023-07-13T09:06:55;22.90;86.80
5588;DHT22;2816;49.778;9.986;2023-07-13T09:09:32;22.80;84.50
5588;DHT22;2816;49.778;9.986;2023-07-13T09:12:11;22.80;86.80
5588;DHT22;2816;49.778;9.986;2023-07-13T09:14:43;22.70;85.40
5588;DHT22;2816;49.778;9.986;2023-07-13T09:17:17;22.70;84.90
5588;DHT22;2816;49.778;9.986;2023-07-13T09:19:53;22.70;86.70
5588;DHT22;2816;49.778;9.986;2023-07-13T09:22:22;22.70;85.00
5588;DHT22;2816;49.778;9.986;2023-07-13T09:24:55;22.80;85.60
5588;DHT22;2816;49.778;9.986;2023-07-13T09:27:29;23.00;85.80
5588;DHT22;2816;49.778;9.986;2023-07-13T09:30:03;23.20;85.60
5588;DHT22;2816;49.778;9.986;2023-07-13T09:32:34;23.40;85.70
5588;DHT22;2816;49.778;9.986;2023-07-13T09:35:10;23.20;84.10
5588;DHT22;2816;49.778;9.986;2023-07-13T09:37:38;23.30;84.20
5588;DHT22;2816;49.778;9.986;2023-07-13T09:40:13;23.50;84.00
5588;DHT22;2816;49.778;9.986;2023-07-13T09:42:43;23.30;85.60
5588;DHT22;2816;49.778;9.986;2023-07-13T09:45:16;23.40;83.00
5588;DHT22;2816;49.778;9.986;2023-07-13T09:47:44;23.60;81.20
5588;DHT22;2816;49.778;9.986;2023-07-13T09:50:15;23.80;81.60
5588;DHT22;2816;49.778;9.986;2023-07-13T09:52:44;23.90;81.50
5588;DHT22;2816;49.778;9.986;2023-07-13T09:55:24;23.80;81.10
5588;DHT22;2816;49.778;9.986;2023-07-13T09:57:51;23.50;80.00
5588;DHT22;2816;49.778;9.986;2023-07-13T10:00:23;23.40;80.70
5588;DHT22;2816;49.778;9.986;2023-07-13T10:03:00;23.40;80.40
5588;DHT22;2816;49.778;9.986;2023-07-13T10:05:28;23.40;81.10
5588;DHT22;2816;49.778;9.986;2023-07-13T10:08:03;23.50;83.20
5588;DHT22;2816;49.778;9.986;2023-07-13T10:10:33;23.40;81.30
5588;DHT22;2816;49.778;9.986;2023-07-13T10:13:01;23.60;83.20
5588;DHT22;2816;49.778;9.986;2023-07-13T10:15:30;23.50;82.40
5588;DHT22;2816;49.778;9.986;2023-07-13T10:17:58;23.50;81.30
5588;DHT22;2816;49.778;9.986;2023-07-13T10:20:28;23.60;82.70
5588;DHT22;2816;49.778;9.986;2023-07-13T10:22:58;23.50;82.00
5588;DHT22;2816;49.778;9.986;2023-07-13T10:25:31;23.50;83.60
5588;DHT22;2816;49.778;9.986;2023-07-13T10:28:02;23.60;82.00
5588;DHT22;2816;49.778;9.986;2023-07-13T10:30:34;23.90;81.70
5588;DHT22;2816;49.778;9.986;2023-07-13T10:33:03;24.00;81.10
5588;DHT22;2816;49.778;9.986;2023-07-13T10:35:37;24.10;81.20
5588;DHT22;2816;49.778;9.986;2023-07-13T10:38:10;24.10;81.20
5588;DHT22;2816;49.778;9.986;2023-07-13T10:40:39;24.30;80.40
5588;DHT22;2816;49.778;9.986;2023-07-13T10:43:13;24.50;80.00
5588;DHT22;2816;49.778;9.986;2023-07-13T10:45:41;24.60;79.00
5588;DHT22;2816;49.778;9.986;2023-07-13T10:48:12;24.60;80.30
5588;DHT22;2816;49.778;9.986;2023-07-13T10:50:44;24.70;80.80
5588;DHT22;2816;49.778;9.986;2023-07-13T10:53:28;25.00;80.20
5588;DHT22;2816;49.778;9.986;2023-07-13T10:55:59;25.00;78.30
5588;DHT22;2816;49.778;9.986;2023-07-13T10:58:32;25.20;78.60
5588;DHT22;2816;49.778;9.986;2023-07-13T11:01:06;25.50;76.50
5588;DHT22;2816;49.778;9.986;2023-07-13T11:03:36;25.80;76.00
5588;DHT22;2816;49.778;9.986;2023-07-13T11:06:08;25.60;75.90
5588;DHT22;2816;49.778;9.986;2023-07-13T11:08:37;25.50;74.50
5588;DHT22;2816;49.778;9.986;2023-07-13T11:11:34;25.50;74.90
5588;DHT22;2816;49.778;9.986;2023-07-13T11:14:02;25.50;75.90
5588;DHT22;2816;49.778;9.986;2023-07-13T11:16:37;25.40;73.20
5588;DHT22;2816;49.778;9.986;2023-07-13T11:22:14;25.20;74.50
5588;DHT22;2816;49.778;9.986;2023-07-13T11:27:38;25.30;75.00
5588;DHT22;2816;49.778;9.986;2023-07-13T11:30:21;25.30;76.60
5588;DHT22;2816;49.778;9.986;2023-07-13T11:32:51;25.40;75.80
5588;DHT22;2816;49.778;9.986;2023-07-13T11:35:23;26.00;74.90
5588;DHT22;2816;49.778;9.986;2023-07-13T11:37:53;26.00;73.50
5588;DHT22;2816;49.778;9.986;2023-07-13T11:40:23;25.70;75.00
5588;DHT22;2816;49.778;9.986;2023-07-13T11:42:59;25.80;74.80
5588;DHT22;2816;49.778;9.986;2023-07-13T11:45:27;26.00;73.20
5588;DHT22;2816;49.778;9.986;2023-07-13T11:47:54;25.90;73.00
5588;DHT22;2816;49.778;9.986;2023-07-13T11:50:24;25.60;72.50
5588;DHT22;2816;49.778;9.986;2023-07-13T11:52:53;25.30;73.20
5588;DHT22;2816;49.778;9.986;2023-07-13T11:55:22;25.40;73.00
5588;DHT22;2816;49.778;9.986;2023-07-13T11:57:54;25.80;73.20
5588;DHT22;2816;49.778;9.986;2023-07-13T12:00:26;25.60;73.20
5588;DHT22;2816;49.778;9.986;2023-07-13T12:02:57;25.80;71.90
5588;DHT22;2816;49.778;9.986;2023-07-13T12:05:26;26.10;72.90
5588;DHT22;2816;49.778;9.986;2023-07-13T12:07:54;25.90;73.20
5588;DHT22;2816;49.778;9.986;2023-07-13T12:10:23;25.60;73.50
5588;DHT22;2816;49.778;9.986;2023-07-13T12:12:54;25.60;73.40
5588;DHT22;2816;49.778;9.986;2023-07-13T12:15:23;25.60;74.40
5588;DHT22;2816;49.778;9.986;2023-07-13T12:17:50;25.70;75.50
5588;DHT22;2816;49.778;9.986;2023-07-13T12:20:23;25.70;73.40
5588;DHT22;2816;49.778;9.986;2023-07-13T12:22:51;25.90;73.50
5588;DHT22;2816;49.778;9.986;2023-07-13T12:25:22;26.00;73.70
5588;DHT22;2816;49.778;9.986;2023-07-13T12:27:50;25.90;72.80
5588;DHT22;2816;49.778;9.986;2023-07-13T12:30:25;26.00;72.50
5588;DHT22;2816;49.778;9.986;2023-07-13T12:33:00;25.80;74.00
5588;DHT22;2816;49.778;9.986;2023-07-13T12:35:29;25.70;73.40
5588;DHT22;2816;49.778;9.986;2023-07-13T12:37:59;25.90;74.00
5588;DHT22;2816;49.778;9.986;2023-07-13T12:40:32;26.00;74.00
5588;DHT22;2816;49.778;9.986;2023-07-13T12:43:00;25.80;72.50
5588;DHT22;2816;49.778;9.986;2023-07-13T12:45:30;25.60;72.80
5588;DHT22;2816;49.778;9.986;2023-07-13T12:47:59;25.50;73.20
5588;DHT22;2816;49.778;9.986;2023-07-13T12:50:36;25.50;72.40
5588;DHT22;2816;49.778;9.986;2023-07-13T12:53:05;25.60;73.80
5588;DHT22;2816;49.778;9.986;2023-07-13T12:55:43;25.60;72.90
5588;DHT22;2816;49.778;9.986;2023-07-13T12:58:17;25.60;74.40
5588;DHT22;2816;49.778;9.986;2023-07-13T13:00:49;25.60;73.90
5588;DHT22;2816;49.778;9.986;2023-07-13T13:03:24;25.70;72.50
5588;DHT22;2816;49.778;9.986;2023-07-13T13:05:58;25.80;74.10
5588;DHT22;2816;49.778;9.986;2023-07-13T13:08:25;25.60;72.30
5588;DHT22;2816;49.778;9.986;2023-07-13T13:10:54;25.60;72.90
5588;DHT22;2816;49.778;9.986;2023-07-13T13:13:21;25.70;74.30
5588;DHT22;2816;49.778;9.986;2023-07-13T13:15:47;25.80;72.60
5588;DHT22;2816;49.778;9.986;2023-07-13T13:18:16;25.80;73.20
5588;DHT22;2816;49.778;9.986;2023-07-13T13:20:43;25.70;72.60
5588;DHT22;2816;49.778;9.986;2023-07-13T13:23:13;25.50;73.10
5588;DHT22;2816;49.778;9.986;2023-07-13T13:25:42;25.20;72.40
5588;DHT22;2816;49.778;9.986;2023-07-13T13:28:14;25.10;74.20
5588;DHT22;2816;49.778;9.986;2023-07-13T13:30:42;25.00;73.20
5588;DHT22;2816;49.778;9.986;2023-07-13T13:33:11;25.00;73.80
5588;DHT22;2816;49.778;9.986;2023-07-13T13:35:39;25.10;74.10
5588;DHT22;2816;49.778;9.986;2023-07-13T13:38:11;25.00;73.70
5588;DHT22;2816;49.778;9.986;2023-07-13T13:40:40;25.10;73.40
5588;DHT22;2816;49.778;9.986;2023-07-13T13:43:20;25.30;75.50
5588;DHT22;2816;49.778;9.986;2023-07-13T13:45:47;25.40;74.80
5588;DHT22;2816;49.778;9.986;2023-07-13T13:48:15;25.20;74.60
5588;DHT22;2816;49.778;9.986;2023-07-13T13:50:43;25.30;74.50
5588;DHT22;2816;49.778;9.986;2023-07-13T13:53:11;25.20;73.90
5588;DHT22;2816;49.778;9.986;2023-07-13T13:55:40;25.10;73.70
5588;DHT22;2816;49.778;9.986;2023-07-13T13:58:08;25.20;73.90
5588;DHT22;2816;49.778;9.986;2023-07-13T14:00:36;25.30;74.30
5588;DHT22;2816;49.778;9.986;2023-07-13T14:03:04;25.30;75.00
5588;DHT22;2816;49.778;9.986;2023-07-13T14:05:32;25.30;73.30
5588;DHT22;2816;49.778;9.986;2023-07-13T14:07:59;25.20;74.10
5588;DHT22;2816;49.778;9.986;2023-07-13T14:10:27;25.30;73.20
5588;DHT22;2816;49.778;9.986;2023-07-13T14:12:56;25.30;72.80
5588;DHT22;2816;49.778;9.986;2023-07-13T14:15:26;25.20;74.20
5588;DHT22;2816;49.778;9.986;2023-07-13T14:17:54;25.40;74.80
5588;DHT22;2816;49.778;9.986;2023-07-13T14:20:24;25.70;72.90
5588;DHT22;2816;49.778;9.986;2023-07-13T14:22:51;25.70;71.70
5588;DHT22;2816;49.778;9.986;2023-07-13T14:25:19;25.60;73.90
5588;DHT22;2816;49.778;9.986;2023-07-13T14:27:49;25.40;71.60
5588;DHT22;2816;49.778;9.986;2023-07-13T14:30:20;25.50;73.40
5588;DHT22;2816;49.778;9.986;2023-07-13T14:32:48;25.40;73.20
5588;DHT22;2816;49.778;9.986;2023-07-13T14:35:20;25.40;72.90
5588;DHT22;2816;49.778;9.986;2023-07-13T14:37:49;25.30;71.50
5588;DHT22;2816;49.778;9.986;2023-07-13T14:40:17;25.40;71.50
5588;DHT22;2816;49.778;9.986;2023-07-13T14:42:46;25.30;72.70
5588;DHT22;2816;49.778;9.986;2023-07-13T14:45:14;25.10;72.10
5588;DHT22;2816;49.778;9.986;2023-07-13T14:47:42;25.30;73.90
5588;DHT22;2816;49.778;9.986;2023-07-13T14:50:15;25.40;71.40
5588;DHT22;2816;49.778;9.986;2023-07-13T14:52:44;25.40;71.80
5588;DHT22;2816;49.778;9.986;2023-07-13T14:55:14;25.40;71.80
5588;DHT22;2816;49.778;9.986;2023-07-13T14:57:42;25.60;71.70
5588;DHT22;2816;49.778;9.986;2023-07-13T15:00:16;25.50;71.00
5588;DHT22;2816;49.778;9.986;2023-07-13T15:02:46;25.60;71.70
5588;DHT22;2816;49.778;9.986;2023-07-13T15:05:15;25.60;70.90
5588;DHT22;2816;49.778;9.986;2023-07-13T15:07:44;25.50;70.20
5588;DHT22;2816;49.778;9.986;2023-07-13T15:10:15;25.40;70.30
5588;DHT22;2816;49.778;9.986;2023-07-13T15:12:43;25.60;72.00
5588;DHT22;2816;49.778;9.986;2023-07-13T15:15:10;25.70;69.80
5588;DHT22;2816;49.778;9.986;2023-07-13T15:17:38;25.90;70.20
5588;DHT22;2816;49.778;9.986;2023-07-13T15:20:15;25.90;71.10
5588;DHT22;2816;49.778;9.986;2023-07-13T15:22:45;26.00;69.60
5588;DHT22;2816;49.778;9.986;2023-07-13T15:25:16;25.80;70.60
5588;DHT22;2816;49.778;9.986;2023-07-13T15:27:43;25.70;71.70
5588;DHT22;2816;49.778;9.986;2023-07-13T15:30:11;25.90;70.00
5588;DHT22;2816;49.778;9.986;2023-07-13T15:32:40;25.80;69.50
5588;DHT22;2816;49.778;9.986;2023-07-13T15:35:14;26.00;69.10
5588;DHT22;2816;49.778;9.986;2023-07-13T15:37:41;26.00;69.20
5588;DHT22;2816;49.778;9.986;2023-07-13T15:40:12;26.10;68.80
5588;DHT22;2816;49.778;9.986;2023-07-13T15:42:40;26.00;70.70
5588;DHT22;2816;49.778;9.986;2023-07-13T15:45:19;25.80;69.60
5588;DHT22;2816;49.778;9.986;2023-07-13T15:47:47;26.00;68.90
5588;DHT22;2816;49.778;9.986;2023-07-13T15:50:16;26.10;67.60
5588;DHT22;2816;49.778;9.986;2023-07-13T15:52:45;26.10;67.90
5588;DHT22;2816;49.778;9.986;2023-07-13T15:55:15;26.20;68.40
5588;DHT22;2816;49.778;9.986;2023-07-13T15:57:47;26.10;67.80
5588;DHT22;2816;49.778;9.986;2023-07-13T16:00:19;25.90;68.60
5588;DHT22;2816;49.778;9.986;2023-07-13T16:02:47;25.90;68.80
5588;DHT22;2816;49.778;9.986;2023-07-13T16:05:14;26.10;68.10
5588;DHT22;2816;49.778;9.986;2023-07-13T16:07:43;26.20;68.80
5588;DHT22;2816;49.778;9.986;2023-07-13T16:10:15;26.30;70.40
5588;DHT22;2816;49.778;9.986;2023-07-13T16:12:42;26.30;69.00
5588;DHT22;2816;49.778;9.986;2023-07-13T16:15:13;26.30;69.00
5588;DHT22;2816;49.778;9.986;2023-07-13T16:17:42;26.10;68.90
5588;DHT22;2816;49.778;9.986;2023-07-13T16:20:10;25.80;68.70
5588;DHT22;2816;49.778;9.986;2023-07-13T16:22:41;25.60;70.10